createdAt,value
2023-02-24T00:01:14.063Z,99.90
2023-02-24T00:06:16.572Z,99.90
2023-02-24T00:11:19.687Z,99.90
2023-02-24T00:16:23.904Z,99.90
2023-02-24T00:21:26.680Z,98.60
2023-02-24T00:26:30.265Z,98.80
2023-02-24T00:31:33.282Z,99.90
2023-02-24T00:36:35.872Z,99.90
2023-02-24T00:41:41.824Z,99.90
2023-02-24T00:46:47.289Z,99.90
2023-02-24T00:51:50.069Z,99.90
2023-02-24T00:56:52.579Z,99.90
2023-02-24T01:01:55.595Z,99.90
2023-02-24T01:07:01.695Z,99.90
2023-02-24T01:12:26.081Z,99.90
2023-02-24T01:17:28.730Z,99.90
2023-02-24T01:22:31.553Z,99.90
2023-02-24T01:27:37.138Z,99.90
2023-02-24T01:32:40.945Z,99.90
2023-02-24T01:37:43.567Z,99.90
2023-02-24T01:42:47.717Z,99.90
2023-02-24T01:47:52.518Z,99.90
2023-02-24T01:53:02.448Z,99.90
2023-02-24T01:58:11.666Z,99.50
2023-02-24T02:03:27.073Z,99.80
2023-02-24T02:08:30.074Z,99.10
2023-02-24T02:13:35.964Z,99.90
2023-02-24T02:18:46.460Z,99.80
2023-02-24T02:23:59.072Z,99.70
2023-02-24T02:29:31.802Z,97.90
2023-02-24T02:34:53.786Z,98.30
2023-02-24T02:40:07.782Z,99.90
2023-02-24T02:45:29.202Z,99.90
2023-02-24T02:51:04.329Z,99.90
2023-02-24T02:56:12.953Z,99.90
2023-02-24T03:01:21.142Z,99.90
2023-02-24T03:06:26.272Z,99.90
2023-02-24T03:11:32.546Z,99.90
2023-02-24T03:16:36.061Z,99.90
2023-02-24T03:21:45.900Z,99.90
2023-02-24T03:27:06.916Z,99.90
2023-02-24T03:32:23.174Z,99.90
2023-02-24T03:37:29.988Z,99.90
2023-02-24T03:42:35.238Z,99.90
2023-02-24T03:47:39.096Z,99.90
2023-02-24T03:52:49.018Z,99.90
2023-02-24T03:58:17.088Z,99.90
2023-02-24T04:03:36.746Z,99.90
2023-02-24T04:09:33.349Z,99.90
2023-02-24T04:14:53.514Z,99.90
2023-02-24T04:20:01.419Z,99.90
2023-02-24T04:25:13.697Z,99.90
2023-02-24T04:30:19.973Z,99.90
2023-02-24T04:35:23.068Z,99.90
2023-02-24T04:40:26.827Z,99.90
2023-02-24T04:45:31.826Z,99.90
2023-02-24T04:50:36.851Z,99.90
2023-02-24T04:55:42.395Z,99.90
2023-02-24T05:00:48.498Z,99.90
2023-02-24T05:05:57.688Z,99.90
2023-02-24T05:11:04.067Z,99.90
2023-02-24T05:16:09.000Z,98.50
2023-02-24T05:21:32.977Z,98.50
2023-02-24T05:26:38.118Z,97.40
2023-02-24T05:31:40.743Z,98.20
2023-02-24T05:36:45.898Z,97.50
2023-02-24T05:41:49.723Z,97.90
2023-02-24T05:47:00.868Z,97.10
2023-02-24T05:52:09.977Z,97.20
2023-02-24T05:57:17.380Z,95.30
2023-02-24T06:02:27.809Z,95.60
2023-02-24T06:07:34.579Z,96.50
2023-02-24T06:12:40.082Z,95.70
2023-02-24T06:17:43.639Z,97.60
2023-02-24T06:22:46.089Z,95.30
2023-02-24T06:27:53.351Z,95.90
2023-02-24T06:32:57.163Z,94.00
2023-02-24T06:38:00.112Z,92.50
2023-02-24T06:43:02.858Z,92.60
2023-02-24T06:48:05.608Z,92.80
2023-02-24T06:53:16.932Z,93.50
2023-02-24T06:58:20.349Z,92.20
2023-02-24T07:03:25.909Z,91.70
2023-02-24T07:08:28.457Z,90.60
2023-02-24T07:13:31.033Z,93.10
2023-02-24T07:18:41.760Z,94.00
2023-02-24T07:23:45.656Z,93.80
2023-02-24T07:28:48.321Z,95.40
2023-02-24T07:33:55.679Z,94.10
2023-02-24T07:38:59.544Z,99.90
2023-02-24T07:44:03.458Z,98.40
2023-02-24T07:49:09.626Z,99.80
2023-02-24T07:54:13.043Z,99.10
2023-02-24T07:59:17.956Z,96.70
2023-02-24T08:04:23.688Z,97.90
2023-02-24T08:09:44.581Z,99.90
2023-02-24T08:14:53.461Z,94.80
2023-02-24T08:20:22.023Z,99.90
2023-02-24T08:25:35.968Z,95.90
2023-02-24T08:30:45.383Z,99.70
2023-02-24T08:36:01.251Z,96.10
2023-02-24T08:41:05.057Z,92.70
2023-02-24T08:46:13.498Z,90.00
2023-02-24T08:51:29.015Z,93.80
2023-02-24T08:56:35.879Z,85.90
2023-02-24T09:01:40.359Z,88.10
2023-02-24T09:06:44.416Z,86.20
2023-02-24T09:11:58.765Z,91.80
2023-02-24T09:17:05.713Z,93.30
2023-02-24T09:22:31.482Z,93.90
2023-02-24T09:27:34.161Z,89.70
2023-02-24T09:32:36.965Z,90.70
2023-02-24T09:37:41.408Z,91.00
2023-02-24T09:42:47.903Z,78.20
2023-02-24T09:47:56.996Z,74.20
2023-02-24T09:53:19.498Z,79.60
2023-02-24T09:58:48.659Z,84.20
2023-02-24T10:04:19.536Z,90.50
2023-02-24T10:09:44.050Z,80.20
2023-02-24T10:15:16.652Z,85.70
2023-02-24T10:20:39.697Z,80.00
2023-02-24T10:25:54.555Z,63.00
2023-02-24T10:31:10.495Z,73.60
2023-02-24T10:36:18.518Z,66.90
2023-02-24T10:41:28.765Z,63.90
2023-02-24T10:46:41.545Z,78.80
2023-02-24T10:51:53.397Z,64.70
2023-02-24T10:57:07.597Z,66.10
2023-02-24T11:02:29.703Z,74.40
2023-02-24T11:07:53.568Z,82.50
2023-02-24T11:13:16.049Z,63.90
2023-02-24T11:18:23.587Z,74.50
2023-02-24T11:23:47.669Z,75.70
2023-02-24T11:28:56.001Z,67.90
2023-02-24T11:34:04.753Z,69.60
2023-02-24T11:39:18.913Z,57.20
2023-02-24T11:44:36.227Z,67.20
2023-02-24T11:49:52.676Z,68.70
2023-02-24T11:54:58.184Z,58.90
2023-02-24T12:00:16.638Z,67.80
2023-02-24T12:05:24.688Z,66.50
2023-02-24T12:10:45.042Z,56.30
2023-02-24T12:16:13.178Z,72.30
2023-02-24T12:21:22.517Z,74.30
2023-02-24T12:26:55.879Z,67.50
2023-02-24T12:32:34.699Z,66.30
2023-02-24T12:37:55.906Z,61.70
2023-02-24T12:43:26.889Z,68.00
2023-02-24T12:48:47.973Z,64.00
2023-02-24T12:54:16.646Z,54.20
2023-02-24T12:59:25.721Z,65.50
2023-02-24T13:04:40.008Z,73.60
2023-02-24T13:09:51.103Z,67.80
2023-02-24T13:14:54.058Z,46.60
2023-02-24T13:19:56.973Z,42.80
2023-02-24T13:25:08.393Z,42.90
2023-02-24T13:30:20.055Z,40.20
2023-02-24T13:35:22.643Z,39.30
2023-02-24T13:40:29.250Z,38.40
2023-02-24T13:45:32.864Z,41.20
2023-02-24T13:50:55.308Z,41.50
2023-02-24T13:56:13.786Z,39.60
2023-02-24T14:01:17.920Z,40.80
2023-02-24T14:06:25.395Z,39.60
2023-02-24T14:11:33.348Z,41.90
2023-02-24T14:16:39.988Z,44.90
2023-02-24T14:21:55.689Z,39.90
2023-02-24T14:26:59.656Z,42.00
2023-02-24T14:32:02.763Z,41.50
2023-02-24T14:37:08.046Z,40.60
2023-02-24T14:42:14.939Z,42.10
2023-02-24T14:47:20.624Z,46.20
2023-02-24T14:52:36.135Z,40.10
2023-02-24T14:57:52.422Z,49.20
2023-02-24T15:03:22.274Z,54.00
2023-02-24T15:08:27.661Z,46.60
2023-02-24T15:13:45.725Z,47.70
2023-02-24T15:18:54.040Z,45.80
2023-02-24T15:24:12.657Z,51.20
2023-02-24T15:29:22.181Z,38.60
2023-02-24T15:34:28.840Z,50.70
2023-02-24T15:39:34.379Z,54.40
2023-02-24T15:44:37.302Z,53.00
2023-02-24T15:49:39.817Z,49.10
2023-02-24T15:54:43.407Z,51.20
2023-02-24T15:59:46.116Z,53.20
2023-02-24T16:04:49.462Z,57.60
2023-02-24T16:09:54.402Z,39.40
2023-02-24T16:15:02.903Z,44.40
2023-02-24T16:20:17.204Z,48.40
2023-02-24T16:25:19.725Z,38.80
2023-02-24T16:30:23.029Z,41.60
2023-02-24T16:35:27.096Z,44.00
2023-02-24T16:40:37.393Z,49.10
2023-02-24T16:45:41.355Z,49.20
2023-02-24T16:50:44.180Z,54.60
2023-02-24T16:55:47.489Z,54.30
2023-02-24T17:00:53.250Z,59.50
2023-02-24T17:05:55.952Z,55.90
2023-02-24T17:10:58.768Z,62.70
2023-02-24T17:16:01.494Z,64.30
2023-02-24T17:21:04.672Z,61.90
2023-02-24T17:26:07.729Z,62.90
2023-02-24T17:31:10.282Z,58.50
2023-02-24T17:36:12.772Z,61.70
2023-02-24T17:41:15.434Z,61.50
2023-02-24T17:46:18.654Z,52.50
2023-02-24T17:51:22.470Z,59.90
2023-02-24T17:56:25.036Z,60.80
2023-02-24T18:01:28.791Z,60.70
2023-02-24T18:06:31.357Z,58.50
2023-02-24T18:11:33.906Z,67.60
2023-02-24T18:16:36.468Z,58.90
2023-02-24T18:21:39.108Z,65.90
2023-02-24T18:26:42.400Z,66.10
2023-02-24T18:31:45.421Z,70.90
2023-02-24T18:36:48.165Z,66.80
2023-02-24T18:41:50.698Z,66.60
2023-02-24T18:46:53.247Z,65.60
2023-02-24T18:51:55.859Z,68.70
2023-02-24T18:56:58.514Z,68.20
2023-02-24T19:02:01.260Z,61.90
2023-02-24T19:07:04.258Z,61.80
2023-02-24T19:12:07.053Z,66.60
2023-02-24T19:17:09.603Z,61.20
2023-02-24T19:22:12.360Z,66.30
2023-02-24T19:27:15.078Z,62.20
2023-02-24T19:32:17.679Z,76.30
2023-02-24T19:37:20.294Z,70.40
2023-02-24T19:42:22.912Z,66.60
2023-02-24T19:47:25.461Z,66.10
2023-02-24T19:52:28.188Z,72.00
2023-02-24T19:57:32.236Z,78.70
2023-02-24T20:02:34.806Z,72.70
2023-02-24T20:07:37.777Z,68.10
2023-02-24T20:12:40.650Z,64.80
2023-02-24T20:17:43.184Z,72.70
2023-02-24T20:22:45.569Z,64.90
2023-02-24T20:27:48.060Z,70.70
2023-02-24T20:32:50.720Z,72.30
2023-02-24T20:37:53.413Z,72.30
2023-02-24T20:42:55.883Z,83.50
2023-02-24T20:47:58.397Z,76.20
2023-02-24T20:53:03.446Z,82.00
2023-02-24T20:58:06.315Z,83.10
2023-02-24T21:03:12.091Z,80.40
2023-02-24T21:08:14.661Z,85.10
2023-02-24T21:13:20.284Z,70.60
2023-02-24T21:18:23.510Z,78.80
2023-02-24T21:23:26.086Z,95.30
2023-02-24T21:28:28.770Z,91.30
2023-02-24T21:33:31.252Z,92.10
2023-02-24T21:38:35.317Z,89.90
2023-02-24T21:43:37.904Z,92.20
2023-02-24T21:48:41.870Z,89.40
2023-02-24T21:53:48.101Z,83.60
2023-02-24T21:59:02.311Z,86.10
2023-02-24T22:04:08.344Z,89.80
2023-02-24T22:09:11.897Z,92.40
2023-02-24T22:14:15.197Z,90.80
2023-02-24T22:19:19.550Z,89.70
2023-02-24T22:24:23.020Z,83.30
2023-02-24T22:29:25.504Z,77.80
2023-02-24T22:34:27.987Z,73.10
2023-02-24T22:39:30.476Z,73.60
2023-02-24T22:44:33.418Z,79.30
2023-02-24T22:49:35.965Z,79.80
2023-02-24T22:54:38.527Z,97.90
2023-02-24T22:59:41.190Z,95.50
2023-02-24T23:04:44.064Z,99.60
2023-02-24T23:09:53.085Z,95.70
2023-02-24T23:14:55.512Z,93.00
2023-02-24T23:19:58.677Z,90.30
2023-02-24T23:25:01.402Z,89.70
2023-02-24T23:30:06.577Z,90.10
2023-02-24T23:35:12.075Z,91.60
2023-02-24T23:40:17.620Z,95.60
2023-02-24T23:45:20.512Z,90.50
2023-02-24T23:50:23.510Z,95.60
2023-02-24T23:55:26.016Z,92.10
